Time;durP1;ratioP1;P1;durP2;ratioP2;P2;SDS_P1;SDS_P2;PMS_P1;PMS_P2;Temp;Humidity;BMP_temperature;BMP_pressure;BME280_temperature;BME280_humidity;BME280_pressure;Samples;Min_cycle;Max_cycle;Signal;HPM_P1;HPM_P2
2022/01/01 00:00:13;;;;;;;4.00;3.80;;;23.00;74.00;;;;;;5076829;28;20924;-66
2022/01/01 00:02:40;;;;;;;4.40;4.10;;;22.90;73.90;;;;;;5076731;28;20437;-65
2022/01/01 00:05:08;;;;;;;3.80;3.60;;;22.90;73.90;;;;;;5076958;28;20433;-69
2022/01/01 00:07:35;;;;;;;4.17;3.87;;;22.90;73.90;;;;;;5076529;28;20488;-65
2022/01/01 00:10:02;;;;;;;3.80;3.57;;;22.90;74.00;;;;;;5076483;28;20488;-65
2022/01/01 00:12:29;;;;;;;3.80;3.50;;;22.90;73.90;;;;;;5076466;28;20784;-65
2022/01/01 00:14:56;;;;;;;4.60;4.30;;;22.90;74.00;;;;;;5076410;28;20463;-65
2022/01/01 00:17:24;;;;;;;4.30;4.00;;;22.90;74.00;;;;;;5076390;28;20822;-65
2022/01/01 00:19:50;;;;;;;3.67;3.47;;;22.90;73.90;;;;;;5076440;28;20447;-65
2022/01/01 00:22:17;;;;;;;3.60;3.40;;;22.90;73.90;;;;;;5076248;28;20440;-65
2022/01/01 00:24:44;;;;;;;4.40;4.10;;;22.90;73.90;;;;;;5076298;28;20447;-65
2022/01/01 00:27:11;;;;;;;3.20;3.00;;;22.90;73.90;;;;;;5076372;28;20472;-65
2022/01/01 00:29:37;;;;;;;4.00;3.70;;;22.90;74.00;;;;;;5076323;28;20439;-65
2022/01/01 00:32:05;;;;;;;4.10;3.80;;;22.90;73.90;;;;;;5076144;28;20834;-65
2022/01/01 00:34:34;;;;;;;3.80;3.50;;;22.90;74.00;;;;;;5076031;28;20440;-65
2022/01/01 00:37:01;;;;;;;3.40;3.20;;;22.90;74.00;;;;;;5075967;28;20460;-65
2022/01/01 00:39:27;;;;;;;4.13;3.83;;;22.90;74.00;;;;;;5075895;28;20443;-65
2022/01/01 00:41:54;;;;;;;4.03;3.73;;;22.90;74.00;;;;;;5076135;28;20437;-65
2022/01/01 00:44:21;;;;;;;3.80;3.50;;;22.90;74.00;;;;;;5076096;28;20499;-65
2022/01/01 00:46:48;;;;;;;3.57;3.37;;;22.90;74.00;;;;;;5075811;28;20481;-70
2022/01/01 00:49:14;;;;;;;3.70;3.50;;;22.90;74.00;;;;;;5075914;28;20858;-65
2022/01/01 00:51:42;;;;;;;4.40;4.00;;;22.90;74.00;;;;;;5075769;28;20519;-65
2022/01/01 00:54:09;;;;;;;3.70;3.50;;;22.90;74.00;;;;;;5076018;28;20433;-66
2022/01/01 00:56:36;;;;;;;3.63;3.43;;;22.90;74.10;;;;;;5075570;28;20443;-66
2022/01/01 00:59:02;;;;;;;4.17;3.87;;;22.90;74.00;;;;;;5075231;28;20831;-65
2022/01/01 01:01:29;;;;;;;3.67;3.37;;;22.90;74.00;;;;;;5075764;28;20440;-65
2022/01/01 01:03:56;;;;;;;3.37;3.10;;;22.90;74.00;;;;;;5075585;28;20467;-65
2022/01/01 01:06:22;;;;;;;3.40;3.20;;;22.90;74.00;;;;;;5075473;28;20449;-65
2022/01/01 01:08:53;;;;;;;3.70;3.50;;;22.90;74.10;;;;;;5075464;28;20437;-65
2022/01/01 01:11:20;;;;;;;3.70;3.50;;;22.90;74.00;;;;;;5075756;28;20437;-65
2022/01/01 01:13:55;;;;;;;3.33;3.13;;;22.90;74.00;;;;;;5075262;28;20790;-65
2022/01/01 01:16:22;;;;;;;3.60;3.10;;;22.90;74.10;;;;;;5075325;28;20448;-66
2022/01/01 01:18:49;;;;;;;3.57;3.37;;;22.90;74.10;;;;;;5075404;28;20789;-65
2022/01/01 01:21:16;;;;;;;3.07;2.87;;;22.90;74.10;;;;;;5075185;28;21542;-65
2022/01/01 01:23:43;;;;;;;3.40;3.20;;;22.90;74.10;;;;;;5075424;28;20440;-65
2022/01/01 01:26:11;;;;;;;3.80;3.50;;;22.90;74.10;;;;;;5075160;28;20505;-65
2022/01/01 01:28:45;;;;;;;3.47;3.20;;;22.90;74.10;;;;;;5075096;28;20485;-66
2022/01/01 01:31:12;;;;;;;3.10;2.90;;;22.90;74.10;;;;;;5075029;28;20822;-65
2022/01/01 01:33:39;;;;;;;3.33;3.13;;;22.90;74.10;;;;;;5074977;28;20807;-65
2022/01/01 01:36:06;;;;;;;3.57;3.27;;;22.90;74.10;;;;;;5074906;28;20948;-65
2022/01/01 01:38:36;;;;;;;2.70;2.60;;;22.90;74.10;;;;;;5074936;28;20448;-65
2022/01/01 01:41:03;;;;;;;3.53;3.33;;;22.90;74.10;;;;;;5074898;28;20440;-65
2022/01/01 01:43:31;;;;;;;3.40;3.10;;;22.90;74.10;;;;;;5074780;28;20520;-65
2022/01/01 01:46:03;;;;;;;2.80;2.63;;;22.90;74.10;;;;;;5074716;28;20523;-65
2022/01/01 01:48:30;;;;;;;3.23;3.00;;;22.90;74.20;;;;;;5074618;28;20846;-65
2022/01/01 01:50:58;;;;;;;3.63;3.33;;;22.90;74.20;;;;;;5074898;28;20438;-65
2022/01/01 01:53:25;;;;;;;3.00;2.80;;;22.90;74.20;;;;;;5074657;28;20945;-65
2022/01/01 01:55:52;;;;;;;2.73;2.53;;;22.90;74.20;;;;;;5074682;28;20463;-69
2022/01/01 01:58:19;;;;;;;3.00;2.80;;;22.90;74.20;;;;;;5074538;28;20452;-65
2022/01/01 02:01:16;;;;;;;2.90;2.70;;;22.90;74.20;;;;;;5074652;28;20445;-65
2022/01/01 02:03:43;;;;;;;3.10;2.87;;;22.90;74.20;;;;;;5074401;28;20862;-65
2022/01/01 02:06:10;;;;;;;3.07;2.77;;;22.90;74.20;;;;;;5074407;28;20457;-65
2022/01/01 02:08:36;;;;;;;2.90;2.70;;;22.90;74.20;;;;;;5073603;28;20503;-65
2022/01/01 02:11:04;;;;;;;3.30;3.10;;;22.90;74.20;;;;;;5073909;28;20437;-70
2022/01/01 02:13:34;;;;;;;2.90;2.70;;;22.90;74.30;;;;;;5074218;28;20437;-65
2022/01/01 02:16:28;;;;;;;3.07;2.87;;;22.90;74.30;;;;;;5074100;28;20881;-65
2022/01/01 02:18:55;;;;;;;3.37;3.17;;;22.90;74.20;;;;;;5074188;28;20444;-65
2022/01/01 02:21:24;;;;;;;3.37;3.17;;;22.90;74.30;;;;;;5073977;28;20449;-65
2022/01/01 02:23:57;;;;;;;2.80;2.60;;;22.90;74.30;;;;;;5073986;28;20531;-65
2022/01/01 02:26:29;;;;;;;2.53;2.33;;;22.90;74.20;;;;;;5074048;28;20436;-65
2022/01/01 02:28:56;;;;;;;2.67;2.47;;;22.90;74.30;;;;;;5073951;28;20484;-65
2022/01/01 02:31:23;;;;;;;2.83;2.63;;;22.90;74.30;;;;;;5073808;28;20433;-65
2022/01/01 02:33:49;;;;;;;3.40;3.20;;;22.90;74.30;;;;;;5073738;28;20440;-65
2022/01/01 02:36:31;;;;;;;2.80;2.40;;;22.90;74.20;;;;;;5073608;28;20464;-65
2022/01/01 02:38:58;;;;;;;2.60;2.40;;;22.90;74.20;;;;;;5073872;28;20923;-65
2022/01/01 02:41:25;;;;;;;2.80;2.60;;;22.90;74.30;;;;;;5073673;28;20448;-65
2022/01/01 02:43:52;;;;;;;2.90;2.70;;;22.90;74.30;;;;;;5073655;28;20453;-65
2022/01/01 02:46:19;;;;;;;2.70;2.50;;;22.90;74.30;;;;;;5073706;28;20441;-66
2022/01/01 02:48:46;;;;;;;2.77;2.57;;;22.90;74.30;;;;;;5073377;28;20476;-65
2022/01/01 02:51:13;;;;;;;2.83;2.63;;;22.90;74.10;;;;;;5073565;28;20439;-66
2022/01/01 02:53:44;;;;;;;2.37;2.27;;;22.90;74.20;;;;;;5073409;28;20472;-65
2022/01/01 02:56:11;;;;;;;2.40;2.20;;;22.90;74.20;;;;;;5073715;28;20850;-65
2022/01/01 02:58:38;;;;;;;2.53;2.33;;;22.90;74.30;;;;;;5073462;28;20449;-65
2022/01/01 03:01:04;;;;;;;2.57;2.37;;;22.90;74.30;;;;;;5073363;28;20445;-66
2022/01/01 03:03:31;;;;;;;2.80;2.60;;;22.90;74.20;;;;;;5073428;28;20441;-65
2022/01/01 03:05:58;;;;;;;2.33;2.20;;;22.90;74.20;;;;;;5073380;28;20457;-65
2022/01/01 03:08:25;;;;;;;2.30;2.20;;;22.90;74.30;;;;;;5073582;28;20507;-69
2022/01/01 03:10:53;;;;;;;2.73;2.53;;;22.90;74.30;;;;;;5073231;28;20444;-65
2022/01/01 03:13:20;;;;;;;2.43;2.23;;;22.90;74.30;;;;;;5073224;28;20432;-65
2022/01/01 03:15:46;;;;;;;2.53;2.33;;;22.90;74.40;;;;;;5073168;28;20444;-65
2022/01/01 03:18:13;;;;;;;2.70;2.50;;;22.90;74.30;;;;;;5073127;28;21006;-65
2022/01/01 03:20:40;;;;;;;2.57;2.37;;;22.90;74.30;;;;;;5073098;28;20442;-69
2022/01/01 03:23:07;;;;;;;2.40;2.30;;;22.90;74.30;;;;;;5073167;28;20437;-65
2022/01/01 03:25:34;;;;;;;2.33;2.20;;;22.90;74.20;;;;;;5073128;28;20448;-65
2022/01/01 03:28:02;;;;;;;2.30;2.10;;;22.90;74.30;;;;;;5073422;28;20480;-65
2022/01/01 03:30:29;;;;;;;2.50;2.30;;;22.90;74.30;;;;;;5073193;28;20437;-65
2022/01/01 03:32:55;;;;;;;2.57;2.47;;;22.90;74.30;;;;;;5073074;28;20453;-65
2022/01/01 03:35:22;;;;;;;2.30;2.10;;;22.90;74.30;;;;;;5072997;28;21015;-67
2022/01/01 03:37:49;;;;;;;2.00;1.83;;;22.90;74.20;;;;;;5073130;28;20916;-65
2022/01/01 03:40:16;;;;;;;2.60;2.40;;;22.90;74.30;;;;;;5073112;28;20445;-65
2022/01/01 03:42:43;;;;;;;2.30;2.20;;;22.90;74.40;;;;;;5072957;28;20439;-65
2022/01/01 03:45:11;;;;;;;2.47;2.30;;;22.90;74.30;;;;;;5073035;28;20444;-65
2022/01/01 03:47:38;;;;;;;2.70;2.50;;;22.90;74.30;;;;;;5072990;28;20484;-65
2022/01/01 03:50:05;;;;;;;2.70;2.60;;;22.90;74.30;;;;;;5072912;28;20432;-65
2022/01/01 03:52:34;;;;;;;2.40;2.20;;;22.90;74.20;;;;;;5072610;28;20440;-65
2022/01/01 03:55:01;;;;;;;2.30;2.20;;;22.90;74.30;;;;;;5073086;28;20807;-65
2022/01/01 03:57:28;;;;;;;2.10;2.00;;;22.90;74.30;;;;;;5072966;28;20443;-65
2022/01/01 03:59:54;;;;;;;2.20;2.00;;;22.90;74.40;;;;;;5072854;28;20441;-65
2022/01/01 04:02:22;;;;;;;2.70;2.50;;;22.90;74.30;;;;;;5072759;28;20447;-65
2022/01/01 04:04:49;;;;;;;2.50;2.30;;;22.90;74.30;;;;;;5072805;28;20445;-65
2022/01/01 04:07:16;;;;;;;2.27;2.17;;;22.90;74.30;;;;;;5072757;28;20971;-65
2022/01/01 04:09:43;;;;;;;2.30;2.10;;;22.90;74.30;;;;;;5072716;28;20480;-65
2022/01/01 04:12:09;;;;;;;2.80;2.60;;;22.90;74.30;;;;;;5072529;28;20959;-65
2022/01/01 04:14:36;;;;;;;2.23;2.13;;;22.90;74.30;;;;;;5072976;28;20443;-65
2022/01/01 04:17:03;;;;;;;2.43;2.23;;;22.90;74.30;;;;;;5072499;28;20480;-65
2022/01/01 04:19:39;;;;;;;2.50;2.37;;;22.90;74.30;;;;;;5072795;28;20487;-65
2022/01/01 04:22:07;;;;;;;2.00;1.90;;;22.90;74.30;;;;;;5072592;28;20440;-65
2022/01/01 04:24:34;;;;;;;1.97;1.87;;;22.90;74.30;;;;;;5072805;28;20429;-69
2022/01/01 04:27:00;;;;;;;2.30;2.10;;;22.90;74.40;;;;;;5072638;28;20437;-65
2022/01/01 04:29:27;;;;;;;2.30;2.20;;;22.90;74.30;;;;;;5072507;28;20480;-65
2022/01/01 04:31:55;;;;;;;2.43;2.23;;;22.90;74.40;;;;;;5072411;28;20496;-65
2022/01/01 04:34:22;;;;;;;2.80;2.60;;;22.90;74.40;;;;;;5076166;28;20432;-65
2022/01/01 04:36:59;;;;;;;2.80;2.60;;;22.90;74.40;;;;;;5076066;28;20812;-65
2022/01/01 04:39:25;;;;;;;1.73;1.63;;;22.90;74.30;;;;;;5076339;28;20440;-65
2022/01/01 04:41:52;;;;;;;2.30;2.20;;;22.90;74.30;;;;;;5075958;28;20440;-65
2022/01/01 04:44:19;;;;;;;2.40;2.30;;;22.90;74.40;;;;;;5076073;28;20938;-65
2022/01/01 04:46:46;;;;;;;2.23;2.13;;;22.90;74.40;;;;;;5076010;28;20444;-65
2022/01/01 04:49:12;;;;;;;2.70;2.50;;;22.90;74.40;;;;;;5075777;28;21006;-65
2022/01/01 04:51:39;;;;;;;2.70;2.50;;;22.90;74.40;;;;;;5075581;28;20440;-65
2022/01/01 04:54:15;;;;;;;2.00;1.90;;;22.90;74.40;;;;;;5075770;28;20938;-65
2022/01/01 04:56:43;;;;;;;2.40;2.23;;;22.90;74.30;;;;;;5075943;28;20467;-65
2022/01/01 04:59:10;;;;;;;2.23;2.10;;;22.90;74.30;;;;;;5075698;28;20479;-65
2022/01/01 05:01:37;;;;;;;2.13;2.00;;;22.80;74.20;;;;;;5075638;28;20459;-65
2022/01/01 05:04:04;;;;;;;2.33;2.20;;;22.90;74.40;;;;;;5075920;28;20432;-65
2022/01/01 05:06:31;;;;;;;2.40;2.20;;;22.90;74.30;;;;;;5075487;28;20460;-65
2022/01/01 05:08:58;;;;;;;2.33;2.13;;;22.90;74.30;;;;;;5075675;28;20480;-65
2022/01/01 05:11:26;;;;;;;2.13;2.03;;;22.90;74.30;;;;;;5075383;28;20433;-65
2022/01/01 05:13:53;;;;;;;2.50;2.37;;;22.90;74.30;;;;;;5075356;28;20440;-65
2022/01/01 05:16:20;;;;;;;2.90;2.70;;;22.90;74.20;;;;;;5075440;28;20451;-65
2022/01/01 05:18:47;;;;;;;2.37;2.27;;;22.90;74.30;;;;;;5075436;28;20443;-65
2022/01/01 05:21:14;;;;;;;2.70;2.50;;;22.90;74.30;;;;;;5075174;28;20444;-65
2022/01/01 05:23:41;;;;;;;2.17;2.07;;;22.90;74.20;;;;;;5075465;28;20445;-65
2022/01/01 05:26:08;;;;;;;2.30;2.10;;;22.80;74.20;;;;;;5075146;28;20437;-65
2022/01/01 05:28:36;;;;;;;1.80;1.70;;;22.90;74.20;;;;;;5075117;28;20850;-65
2022/01/01 05:31:02;;;;;;;2.10;2.00;;;22.90;74.30;;;;;;5075082;28;20444;-65
2022/01/01 05:33:29;;;;;;;2.03;1.93;;;22.90;74.30;;;;;;5074911;28;20429;-65
2022/01/01 05:35:56;;;;;;;2.60;2.40;;;22.90;74.20;;;;;;5074919;28;20464;-65
2022/01/01 05:38:23;;;;;;;2.33;2.13;;;22.90;74.20;;;;;;5075021;28;20448;-65
2022/01/01 05:40:49;;;;;;;2.90;2.70;;;22.80;74.20;;;;;;5074935;28;20440;-65
2022/01/01 05:43:16;;;;;;;2.00;1.90;;;22.80;74.20;;;;;;5074661;28;20445;-66
2022/01/01 05:45:44;;;;;;;2.50;2.30;;;22.90;74.30;;;;;;5074829;28;20841;-65
2022/01/01 05:48:11;;;;;;;1.77;1.67;;;22.90;74.30;;;;;;5074758;28;20480;-65
2022/01/01 05:50:38;;;;;;;2.37;2.17;;;22.80;74.20;;;;;;5074807;28;20793;-65
2022/01/01 05:53:05;;;;;;;2.47;2.27;;;22.80;74.20;;;;;;5074579;28;20443;-65
2022/01/01 05:55:32;;;;;;;2.50;2.30;;;22.80;74.30;;;;;;5074556;28;20448;-65
2022/01/01 05:57:58;;;;;;;2.23;2.13;;;22.90;74.30;;;;;;5074541;28;20444;-65
2022/01/01 06:00:25;;;;;;;2.23;2.13;;;22.80;74.20;;;;;;5074579;28;20444;-65
2022/01/01 06:02:53;;;;;;;1.80;1.70;;;22.80;74.20;;;;;;5074766;28;20787;-65
2022/01/01 06:05:20;;;;;;;2.13;2.03;;;22.80;74.20;;;;;;5074471;28;20460;-65
2022/01/01 06:07:47;;;;;;;2.20;2.10;;;22.80;74.20;;;;;;5074288;28;20436;-65
2022/01/01 06:10:13;;;;;;;2.30;2.10;;;22.80;74.20;;;;;;5074260;28;20991;-65
2022/01/01 06:12:40;;;;;;;2.80;2.60;;;22.80;74.20;;;;;;5074129;28;20436;-65
2022/01/01 06:15:08;;;;;;;2.30;2.20;;;22.80;74.10;;;;;;5074276;28;20912;-65
2022/01/01 06:17:35;;;;;;;1.70;1.60;;;22.80;74.10;;;;;;5074208;28;20471;-65
2022/01/01 06:20:04;;;;;;;2.03;1.90;;;22.80;74.20;;;;;;5074106;28;20437;-65
2022/01/01 06:22:31;;;;;;;1.97;1.87;;;22.80;74.20;;;;;;5074069;28;20459;-70
2022/01/01 06:24:57;;;;;;;1.87;1.77;;;22.80;74.20;;;;;;5074031;28;20443;-65
2022/01/01 06:27:24;;;;;;;2.73;2.53;;;22.90;74.20;;;;;;5073973;28;20445;-65
2022/01/01 06:29:51;;;;;;;2.17;2.07;;;22.80;74.20;;;;;;5073960;28;20574;-65
2022/01/01 06:32:18;;;;;;;1.80;1.70;;;22.80;74.10;;;;;;5073752;28;20459;-65
2022/01/01 06:34:44;;;;;;;1.93;1.83;;;22.80;74.20;;;;;;5073840;28;20448;-65
2022/01/01 06:37:13;;;;;;;1.53;1.43;;;22.80;74.20;;;;;;5073713;28;20463;-65
2022/01/01 06:39:40;;;;;;;1.87;1.77;;;22.80;74.20;;;;;;5073802;28;20443;-66
2022/01/01 06:42:07;;;;;;;1.83;1.73;;;22.80;74.20;;;;;;5073837;28;20777;-65
2022/01/01 06:44:34;;;;;;;1.90;1.80;;;22.80;75.10;;;;;;5073863;28;20444;-65
2022/01/01 06:47:00;;;;;;;1.90;1.80;;;22.80;74.10;;;;;;5073660;28;20433;-65
2022/01/01 06:49:27;;;;;;;1.77;1.67;;;22.80;74.20;;;;;;5073716;28;20484;-65
2022/01/01 06:51:54;;;;;;;2.40;2.20;;;22.80;74.20;;;;;;5073475;28;20441;-65
2022/01/01 06:54:22;;;;;;;1.70;1.60;;;22.80;74.10;;;;;;5073628;28;20451;-65
2022/01/01 06:56:49;;;;;;;2.00;1.90;;;22.80;74.20;;;;;;5072975;28;20437;-65
2022/01/01 06:59:16;;;;;;;1.80;1.60;;;22.80;74.20;;;;;;5073703;28;20444;-65
2022/01/01 07:01:42;;;;;;;2.00;1.90;;;22.80;74.20;;;;;;5073394;28;20440;-65
2022/01/01 07:04:09;;;;;;;1.90;1.80;;;22.80;74.10;;;;;;5073516;28;20441;-65
2022/01/01 07:06:37;;;;;;;1.87;1.60;;;22.80;74.20;;;;;;5073559;28;20452;-65
2022/01/01 07:09:06;;;;;;;1.60;1.50;;;22.80;74.20;;;;;;5073250;28;20884;-65
2022/01/01 07:11:34;;;;;;;1.80;1.70;;;22.80;74.20;;;;;;5073181;28;20448;-70
2022/01/01 07:14:01;;;;;;;1.77;1.67;;;22.80;74.30;;;;;;5073279;28;20446;-65
2022/01/01 07:16:27;;;;;;;1.80;1.70;;;22.80;74.30;;;;;;5073118;28;20791;-65
2022/01/01 07:18:54;;;;;;;1.30;1.20;;;22.80;74.20;;;;;;5073368;28;20441;-65
2022/01/01 07:21:21;;;;;;;1.80;1.70;;;22.80;74.20;;;;;;5073126;28;20920;-65
2022/01/01 07:23:47;;;;;;;1.80;1.70;;;22.90;74.30;;;;;;5073260;28;20790;-65
2022/01/01 07:26:14;;;;;;;2.20;2.00;;;22.80;74.20;;;;;;5073047;28;20456;-65
2022/01/01 07:28:42;;;;;;;2.17;2.00;;;22.80;74.20;;;;;;5073123;28;20468;-65
2022/01/01 07:31:09;;;;;;;1.67;1.57;;;22.80;74.20;;;;;;5073183;28;20851;-65
2022/01/01 07:33:36;;;;;;;1.47;1.37;;;22.80;74.20;;;;;;5073102;28;20437;-65
2022/01/01 07:36:03;;;;;;;1.80;1.70;;;22.80;74.10;;;;;;5073097;28;20457;-65
2022/01/01 07:38:30;;;;;;;1.67;1.57;;;22.80;74.10;;;;;;5073065;28;20460;-65
2022/01/01 07:40:56;;;;;;;1.83;1.73;;;22.80;74.20;;;;;;5073012;28;20939;-65
2022/01/01 07:43:24;;;;;;;1.83;1.63;;;22.80;74.20;;;;;;5073576;28;20447;-65
2022/01/01 07:45:52;;;;;;;1.47;1.37;;;22.80;74.20;;;;;;5073101;28;20440;-65
2022/01/01 07:48:19;;;;;;;2.00;1.73;;;22.80;74.20;;;;;;5073024;28;20796;-65
2022/01/01 07:50:46;;;;;;;1.57;1.47;;;22.80;74.20;;;;;;5072818;28;21018;-65
2022/01/01 07:53:13;;;;;;;1.73;1.60;;;22.80;74.40;;;;;;5072854;28;20444;-65
2022/01/01 07:55:39;;;;;;;1.80;1.60;;;22.80;74.30;;;;;;5072907;28;20442;-65
2022/01/01 07:58:07;;;;;;;1.47;1.37;;;22.80;74.30;;;;;;5072939;28;20440;-65
2022/01/01 08:00:34;;;;;;;1.40;1.27;;;22.80;74.30;;;;;;5072752;28;20457;-65
2022/01/01 08:03:02;;;;;;;1.60;1.50;;;22.80;75.10;;;;;;5072786;28;20443;-65
2022/01/01 08:05:29;;;;;;;1.37;1.27;;;22.80;74.20;;;;;;5072669;28;20437;-65
2022/01/01 08:07:56;;;;;;;1.73;1.63;;;22.80;74.20;;;;;;5074402;28;20441;-65
2022/01/01 08:10:23;;;;;;;1.60;1.50;;;22.80;74.20;;;;;;5076617;28;20487;-65
2022/01/01 08:12:50;;;;;;;1.50;1.40;;;22.80;74.30;;;;;;5076310;28;20433;-65
2022/01/01 08:15:17;;;;;;;1.50;1.40;;;22.80;74.20;;;;;;5076802;28;20803;-65
2022/01/01 08:17:44;;;;;;;1.30;1.20;;;22.80;74.30;;;;;;5076442;28;20472;-65
2022/01/01 08:20:12;;;;;;;1.20;1.10;;;22.80;74.20;;;;;;5076656;28;20443;-65
2022/01/01 08:22:39;;;;;;;1.50;1.40;;;22.80;74.30;;;;;;5076398;28;20432;-65
2022/01/01 08:25:07;;;;;;;1.73;1.50;;;22.80;74.20;;;;;;5076269;28;20494;-65
2022/01/01 08:27:34;;;;;;;1.60;1.50;;;22.80;74.10;;;;;;5076318;28;20436;-65
2022/01/01 08:30:00;;;;;;;1.40;1.30;;;22.80;74.10;;;;;;5076177;28;20484;-65
2022/01/01 08:32:27;;;;;;;2.23;1.57;;;22.80;74.20;;;;;;5076078;28;20448;-65
2022/01/01 08:34:54;;;;;;;1.20;1.10;;;22.80;74.20;;;;;;5076160;28;20432;-65
2022/01/01 08:37:22;;;;;;;1.40;1.30;;;22.80;74.20;;;;;;5075995;28;20464;-65
2022/01/01 08:39:49;;;;;;;1.40;1.30;;;22.80;74.20;;;;;;5076115;28;20436;-65
2022/01/01 08:42:15;;;;;;;1.40;1.17;;;22.80;74.10;;;;;;5076025;28;20436;-65
2022/01/01 08:44:43;;;;;;;1.60;1.50;;;22.80;74.20;;;;;;5076023;28;20787;-65
2022/01/01 08:47:10;;;;;;;1.67;1.57;;;22.80;74.10;;;;;;5076086;28;20431;-65
2022/01/01 08:49:37;;;;;;;1.60;1.50;;;22.80;74.10;;;;;;5075849;28;20547;-65
2022/01/01 08:52:04;;;;;;;1.50;1.40;;;22.80;74.00;;;;;;5075706;28;20445;-65
2022/01/01 08:54:32;;;;;;;1.40;1.30;;;22.80;74.00;;;;;;5076067;28;20444;-65
2022/01/01 08:56:59;;;;;;;1.87;1.70;;;22.80;74.20;;;;;;5076087;28;20433;-65
2022/01/01 08:59:26;;;;;;;1.40;1.30;;;22.80;74.00;;;;;;5075873;28;20438;-65
2022/01/01 09:01:52;;;;;;;1.27;1.17;;;22.80;74.00;;;;;;5075640;28;20437;-65
2022/01/01 09:04:19;;;;;;;1.40;1.20;;;22.80;74.00;;;;;;5075669;28;20441;-65
2022/01/01 09:06:46;;;;;;;1.30;1.20;;;22.80;74.10;;;;;;5075590;28;20811;-65
2022/01/01 09:09:12;;;;;;;1.47;1.30;;;22.80;74.00;;;;;;5075590;28;20796;-70
2022/01/01 09:11:41;;;;;;;1.30;1.10;;;22.80;74.00;;;;;;5075337;28;20912;-66
2022/01/01 09:14:07;;;;;;;1.50;1.40;;;22.80;74.10;;;;;;5075448;28;20429;-65
2022/01/01 09:16:34;;;;;;;1.17;1.07;;;22.80;74.00;;;;;;5075270;28;20466;-65
2022/01/01 09:19:02;;;;;;;1.20;1.10;;;22.80;74.00;;;;;;5075143;28;20445;-65
2022/01/01 09:21:29;;;;;;;1.20;1.10;;;22.80;73.90;;;;;;5075400;28;20437;-65
2022/01/01 09:23:56;;;;;;;1.37;1.27;;;22.80;73.90;;;;;;5075255;28;20432;-65
2022/01/01 09:26:23;;;;;;;1.30;1.20;;;22.80;74.10;;;;;;5075285;28;20436;-65
2022/01/01 09:28:51;;;;;;;1.40;1.30;;;22.80;74.00;;;;;;5075228;28;20437;-65
2022/01/01 09:31:18;;;;;;;1.30;1.10;;;22.80;74.20;;;;;;5075177;28;20481;-66
2022/01/01 09:33:45;;;;;;;1.43;1.33;;;22.80;74.00;;;;;;5075368;28;20793;-65
2022/01/01 09:36:14;;;;;;;1.30;0.93;;;22.80;74.10;;;;;;5074973;28;20452;-65
2022/01/01 09:38:42;;;;;;;1.50;1.20;;;22.80;74.00;;;;;;5075088;28;20499;-65
2022/01/01 09:41:10;;;;;;;1.13;1.03;;;22.80;74.00;;;;;;5074922;28;20443;-65
2022/01/01 09:43:37;;;;;;;1.40;1.30;;;22.80;74.10;;;;;;5074950;28;20530;-65
2022/01/01 09:46:05;;;;;;;1.30;1.20;;;22.80;74.00;;;;;;5075237;28;20434;-65
2022/01/01 09:48:33;;;;;;;1.20;1.10;;;22.80;74.10;;;;;;5074844;28;20444;-65
2022/01/01 09:51:01;;;;;;;1.50;1.40;;;22.80;74.00;;;;;;5074730;28;20480;-65
2022/01/01 09:53:29;;;;;;;1.40;1.30;;;22.80;74.00;;;;;;5074584;28;20437;-65
2022/01/01 09:55:57;;;;;;;1.40;1.30;;;22.80;74.00;;;;;;5074702;28;20433;-69
2022/01/01 09:58:25;;;;;;;1.37;1.27;;;22.80;73.90;;;;;;5074655;28;20506;-65
2022/01/01 10:00:52;;;;;;;1.30;1.20;;;22.80;73.90;;;;;;5074500;28;20768;-65
2022/01/01 10:03:28;;;;;;;1.50;1.40;;;22.90;74.00;;;;;;5074455;28;20477;-65
2022/01/01 10:06:00;;;;;;;1.50;1.13;;;22.80;73.80;;;;;;5074414;28;20832;-65
2022/01/01 10:08:27;;;;;;;1.20;1.10;;;22.80;74.00;;;;;;5074394;28;20444;-65
2022/01/01 10:10:54;;;;;;;1.10;0.90;;;22.80;74.00;;;;;;5074181;28;21011;-65
2022/01/01 10:13:29;;;;;;;1.50;1.27;;;22.80;73.90;;;;;;5074249;28;20534;-65
2022/01/01 10:15:58;;;;;;;1.40;1.13;;;22.80;73.90;;;;;;5074154;28;20437;-65
2022/01/01 10:18:30;;;;;;;1.20;1.10;;;22.80;73.80;;;;;;5074393;28;20483;-66
2022/01/01 10:21:02;;;;;;;1.17;1.00;;;22.80;73.90;;;;;;5074151;28;20803;-65
2022/01/01 10:23:31;;;;;;;1.87;1.77;;;22.80;73.80;;;;;;5074121;28;20493;-65
2022/01/01 10:29:10;;;;;;;1.20;1.00;;;22.80;73.90;;;;;;5074117;28;20511;-65
2022/01/01 10:31:38;;;;;;;1.73;0.93;;;22.80;73.90;;;;;;5073181;28;20492;-65
2022/01/01 10:34:15;;;;;;;1.30;1.00;;;22.80;74.00;;;;;;5073912;28;20447;-65
2022/01/01 10:36:45;;;;;;;1.87;1.00;;;22.80;73.90;;;;;;5073847;28;20970;-65
2022/01/01 10:39:13;;;;;;;1.27;1.10;;;22.80;73.90;;;;;;5073786;28;20450;-65
2022/01/01 10:41:49;;;;;;;1.60;1.30;;;22.80;74.00;;;;;;5073705;28;20448;-65
2022/01/01 10:44:17;;;;;;;1.10;0.90;;;22.80;74.00;;;;;;5073730;28;20800;-65
2022/01/01 10:46:44;;;;;;;1.47;1.37;;;22.80;74.30;;;;;;5073680;28;20442;-65
2022/01/01 10:49:34;;;;;;;1.23;1.10;;;22.80;73.90;;;;;;5073666;28;20440;-65
2022/01/01 10:52:19;;;;;;;1.47;1.37;;;22.80;73.80;;;;;;5073635;28;20437;-65
2022/01/01 10:54:51;;;;;;;1.20;0.90;;;22.80;73.90;;;;;;5073792;28;20440;-65
2022/01/01 10:57:25;;;;;;;1.00;0.90;;;22.80;73.80;;;;;;5073595;28;20432;-65
2022/01/01 11:00:04;;;;;;;1.00;0.90;;;22.80;73.90;;;;;;5073545;28;20451;-65
2022/01/01 11:02:33;;;;;;;1.20;0.90;;;22.80;73.90;;;;;;5073799;28;20433;-65
2022/01/01 11:05:03;;;;;;;1.10;0.83;;;22.80;73.90;;;;;;5073474;28;20493;-65
2022/01/01 11:07:31;;;;;;;1.10;0.90;;;22.80;73.80;;;;;;5073268;28;20478;-65
2022/01/01 11:09:59;;;;;;;1.00;0.90;;;22.80;73.80;;;;;;5073591;28;20480;-65
2022/01/01 11:12:28;;;;;;;1.10;0.87;;;22.80;73.90;;;;;;5073359;28;20436;-65
2022/01/01 11:14:55;;;;;;;1.00;0.90;;;22.80;73.90;;;;;;5073320;28;20919;-65
2022/01/01 11:17:23;;;;;;;1.40;1.30;;;22.80;73.90;;;;;;5073229;28;20471;-65
2022/01/01 11:19:51;;;;;;;1.10;0.90;;;22.80;73.90;;;;;;5073281;28;20437;-65
2022/01/01 11:22:19;;;;;;;1.10;1.00;;;22.80;73.80;;;;;;5073350;28;20428;-65
2022/01/01 11:24:47;;;;;;;1.40;1.17;;;22.80;73.80;;;;;;5073233;28;20437;-65
2022/01/01 11:27:14;;;;;;;1.20;1.10;;;22.80;73.90;;;;;;5073141;28;20441;-65
2022/01/01 11:29:49;;;;;;;1.30;1.20;;;22.80;73.70;;;;;;5073078;28;20920;-65
2022/01/01 11:32:17;;;;;;;1.40;1.07;;;22.80;73.80;;;;;;5073114;28;20462;-65
2022/01/01 11:34:47;;;;;;;1.30;1.20;;;22.80;73.80;;;;;;5073146;28;20432;-65
2022/01/01 11:37:15;;;;;;;1.10;0.93;;;22.80;73.70;;;;;;5072993;28;20798;-65
2022/01/01 11:39:45;;;;;;;1.30;1.20;;;22.80;73.80;;;;;;5073067;28;20934;-65
2022/01/01 11:42:14;;;;;;;1.20;1.10;;;22.80;73.90;;;;;;5075237;28;20804;-65
2022/01/01 11:44:43;;;;;;;1.43;1.33;;;22.80;73.80;;;;;;5077186;28;20784;-65
2022/01/01 11:47:20;;;;;;;1.20;1.10;;;22.80;73.80;;;;;;5077158;28;20428;-65
2022/01/01 11:49:47;;;;;;;1.20;1.10;;;22.80;73.70;;;;;;5077042;28;20988;-65
2022/01/01 11:52:35;;;;;;;1.00;0.90;;;22.80;73.80;;;;;;5076863;28;20462;-65
2022/01/01 11:55:06;;;;;;;1.10;0.80;;;22.90;73.70;;;;;;5077018;28;20950;-65
2022/01/01 11:57:33;;;;;;;1.10;0.87;;;22.80;73.70;;;;;;5076980;28;20441;-65
2022/01/01 12:00:08;;;;;;;1.50;1.10;;;22.80;73.70;;;;;;5076941;28;20436;-65
2022/01/01 12:02:48;;;;;;;1.20;0.97;;;22.80;73.80;;;;;;5076904;28;20443;-65
2022/01/01 12:05:18;;;;;;;1.20;0.90;;;22.80;73.70;;;;;;5076733;28;20589;-65
2022/01/01 12:07:53;;;;;;;1.10;1.00;;;22.80;73.80;;;;;;5076709;28;20436;-65
2022/01/01 12:10:28;;;;;;;1.00;0.90;;;22.80;73.70;;;;;;5076538;28;20476;-70
2022/01/01 12:12:58;;;;;;;1.27;1.17;;;22.80;73.70;;;;;;5076495;28;20445;-65
2022/01/01 12:15:31;;;;;;;1.10;0.83;;;22.80;73.60;;;;;;5077187;28;20437;-65
2022/01/01 12:18:01;;;;;;;1.20;1.00;;;22.80;73.60;;;;;;5076587;28;20486;-66
2022/01/01 12:20:30;;;;;;;1.10;1.00;;;22.80;73.70;;;;;;5076404;28;20454;-69
2022/01/01 12:22:58;;;;;;;1.10;0.90;;;22.80;73.70;;;;;;5076329;28;20940;-65
2022/01/01 12:25:28;;;;;;;1.20;1.00;;;22.80;73.60;;;;;;5076379;28;20437;-65
2022/01/01 12:27:57;;;;;;;1.10;0.87;;;22.80;73.70;;;;;;5076312;28;20443;-66
2022/01/01 12:30:49;;;;;;;1.30;1.00;;;22.80;73.80;;;;;;5076202;28;20484;-65
2022/01/01 12:33:41;;;;;;;1.10;0.90;;;22.80;73.50;;;;;;5061738;28;20445;-65
2022/01/01 12:36:10;;;;;;;1.13;1.03;;;22.80;73.60;;;;;;5076012;28;20955;-65
2022/01/01 12:38:39;;;;;;;1.63;1.00;;;22.80;74.00;;;;;;5076201;28;20458;-65
2022/01/01 12:41:09;;;;;;;1.10;1.00;;;22.80;73.60;;;;;;5076141;28;20440;-65
2022/01/01 12:43:53;;;;;;;1.10;0.90;;;22.80;73.50;;;;;;5076087;28;20916;-65
2022/01/01 12:46:21;;;;;;;1.30;1.10;;;22.80;73.60;;;;;;5076027;28;20436;-66
2022/01/01 12:48:49;;;;;;;1.03;0.80;;;22.80;73.60;;;;;;5075907;28;20449;-65
2022/01/01 12:51:20;;;;;;;1.43;1.23;;;22.80;73.60;;;;;;5075798;28;20487;-65
2022/01/01 12:53:52;;;;;;;1.40;1.10;;;22.80;73.60;;;;;;5074874;28;20460;-66
2022/01/01 12:56:21;;;;;;;1.17;1.00;;;22.80;73.60;;;;;;5075796;28;20596;-65